sensor_id;sensor_type;location;lat;lon;timestamp;P1;durP1;ratioP1;P2;durP2;ratioP2
26953;SDS011;14508;50.924;11.600;2023-05-07T00:00:49;42.08;;;20.33;;
26953;SDS011;14508;50.924;11.600;2023-05-07T00:03:17;40.63;;;19.83;;
26953;SDS011;14508;50.924;11.600;2023-05-07T00:05:47;43.03;;;20.45;;
26953;SDS011;14508;50.924;11.600;2023-05-07T00:08:15;45.33;;;20.70;;
26953;SDS011;14508;50.924;11.600;2023-05-07T00:10:43;42.83;;;21.42;;
26953;SDS011;14508;50.924;11.600;2023-05-07T00:13:12;43.03;;;21.45;;
26953;SDS011;14508;50.924;11.600;2023-05-07T00:15:40;45.50;;;22.20;;
26953;SDS011;14508;50.924;11.600;2023-05-07T00:18:08;47.90;;;22.27;;
26953;SDS011;14508;50.924;11.600;2023-05-07T00:20:36;52.25;;;23.38;;
26953;SDS011;14508;50.924;11.600;2023-05-07T00:23:05;54.53;;;23.55;;
26953;SDS011;14508;50.924;11.600;2023-05-07T00:25:33;49.88;;;22.95;;
26953;SDS011;14508;50.924;11.600;2023-05-07T00:28:01;51.45;;;23.80;;
26953;SDS011;14508;50.924;11.600;2023-05-07T00:30:30;55.97;;;25.38;;
26953;SDS011;14508;50.924;11.600;2023-05-07T00:32:58;52.33;;;24.35;;
26953;SDS011;14508;50.924;11.600;2023-05-07T00:35:26;57.45;;;23.73;;
26953;SDS011;14508;50.924;11.600;2023-05-07T00:37:54;57.80;;;25.42;;
26953;SDS011;14508;50.924;11.600;2023-05-07T00:40:23;59.05;;;26.60;;
26953;SDS011;14508;50.924;11.600;2023-05-07T00:42:51;58.25;;;25.35;;
26953;SDS011;14508;50.924;11.600;2023-05-07T00:45:22;59.13;;;26.00;;
26953;SDS011;14508;50.924;11.600;2023-05-07T00:47:54;51.90;;;24.90;;
26953;SDS011;14508;50.924;11.600;2023-05-07T00:50:22;59.05;;;25.50;;
26953;SDS011;14508;50.924;11.600;2023-05-07T00:52:50;57.65;;;24.08;;
26953;SDS011;14508;50.924;11.600;2023-05-07T00:55:18;56.47;;;23.92;;
26953;SDS011;14508;50.924;11.600;2023-05-07T00:57:48;54.10;;;26.00;;
26953;SDS011;14508;50.924;11.600;2023-05-07T01:00:17;52.95;;;24.17;;
26953;SDS011;14508;50.924;11.600;2023-05-07T01:02:46;54.75;;;24.45;;
26953;SDS011;14508;50.924;11.600;2023-05-07T01:05:15;52.85;;;25.08;;
26953;SDS011;14508;50.924;11.600;2023-05-07T01:07:45;60.15;;;25.50;;
26953;SDS011;14508;50.924;11.600;2023-05-07T01:10:14;58.75;;;25.05;;
26953;SDS011;14508;50.924;11.600;2023-05-07T01:12:43;51.55;;;24.35;;
26953;SDS011;14508;50.924;11.600;2023-05-07T01:15:13;52.65;;;23.40;;
26953;SDS011;14508;50.924;11.600;2023-05-07T01:17:42;48.45;;;22.65;;
26953;SDS011;14508;50.924;11.600;2023-05-07T01:20:17;52.22;;;23.73;;
26953;SDS011;14508;50.924;11.600;2023-05-07T01:22:48;55.17;;;24.35;;
26953;SDS011;14508;50.924;11.600;2023-05-07T01:25:17;50.55;;;24.80;;
26953;SDS011;14508;50.924;11.600;2023-05-07T01:27:49;49.72;;;22.80;;
26953;SDS011;14508;50.924;11.600;2023-05-07T01:30:20;52.78;;;23.27;;
26953;SDS011;14508;50.924;11.600;2023-05-07T01:32:50;54.05;;;24.45;;
26953;SDS011;14508;50.924;11.600;2023-05-07T01:35:24;50.90;;;22.20;;
26953;SDS011;14508;50.924;11.600;2023-05-07T01:37:57;51.08;;;21.98;;
26953;SDS011;14508;50.924;11.600;2023-05-07T01:40:25;47.80;;;22.00;;
26953;SDS011;14508;50.924;11.600;2023-05-07T01:42:54;47.33;;;21.67;;
26953;SDS011;14508;50.924;11.600;2023-05-07T01:45:22;42.80;;;20.38;;
26953;SDS011;14508;50.924;11.600;2023-05-07T01:47:50;42.05;;;19.52;;
26953;SDS011;14508;50.924;11.600;2023-05-07T01:50:19;46.05;;;20.50;;
26953;SDS011;14508;50.924;11.600;2023-05-07T01:52:49;44.30;;;19.50;;
26953;SDS011;14508;50.924;11.600;2023-05-07T01:55:19;42.10;;;19.38;;
26953;SDS011;14508;50.924;11.600;2023-05-07T01:57:47;45.15;;;20.48;;
26953;SDS011;14508;50.924;11.600;2023-05-07T02:00:15;40.72;;;19.48;;
26953;SDS011;14508;50.924;11.600;2023-05-07T02:02:44;42.55;;;19.95;;
26953;SDS011;14508;50.924;11.600;2023-05-07T02:08:33;39.60;;;18.40;;
26953;SDS011;14508;50.924;11.600;2023-05-07T02:11:03;41.03;;;20.17;;
26953;SDS011;14508;50.924;11.600;2023-05-07T02:13:32;46.67;;;20.73;;
26953;SDS011;14508;50.924;11.600;2023-05-07T02:16:01;42.88;;;20.13;;
26953;SDS011;14508;50.924;11.600;2023-05-07T02:18:29;37.90;;;18.95;;
26953;SDS011;14508;50.924;11.600;2023-05-07T02:20:58;42.78;;;19.52;;
26953;SDS011;14508;50.924;11.600;2023-05-07T02:23:26;41.83;;;20.17;;
26953;SDS011;14508;50.924;11.600;2023-05-07T02:25:54;38.50;;;19.55;;
26953;SDS011;14508;50.924;11.600;2023-05-07T02:28:23;38.80;;;17.75;;
26953;SDS011;14508;50.924;11.600;2023-05-07T02:30:56;43.45;;;18.45;;
26953;SDS011;14508;50.924;11.600;2023-05-07T02:33:27;37.33;;;16.60;;
26953;SDS011;14508;50.924;11.600;2023-05-07T02:35:55;32.10;;;15.57;;
26953;SDS011;14508;50.924;11.600;2023-05-07T02:38:24;33.42;;;16.33;;
26953;SDS011;14508;50.924;11.600;2023-05-07T02:40:51;38.08;;;16.45;;
26953;SDS011;14508;50.924;11.600;2023-05-07T02:43:20;32.80;;;15.55;;
26953;SDS011;14508;50.924;11.600;2023-05-07T02:45:49;37.80;;;16.77;;
26953;SDS011;14508;50.924;11.600;2023-05-07T02:48:28;39.80;;;16.75;;
26953;SDS011;14508;50.924;11.600;2023-05-07T02:50:56;31.63;;;14.82;;
26953;SDS011;14508;50.924;11.600;2023-05-07T02:53:24;33.55;;;14.13;;
26953;SDS011;14508;50.924;11.600;2023-05-07T02:55:53;30.58;;;14.23;;
26953;SDS011;14508;50.924;11.600;2023-05-07T02:58:21;29.40;;;14.60;;
26953;SDS011;14508;50.924;11.600;2023-05-07T03:00:51;33.50;;;14.45;;
26953;SDS011;14508;50.924;11.600;2023-05-07T03:03:41;29.17;;;13.23;;
26953;SDS011;14508;50.924;11.600;2023-05-07T03:06:09;26.13;;;13.07;;
26953;SDS011;14508;50.924;11.600;2023-05-07T03:08:37;28.85;;;12.65;;
26953;SDS011;14508;50.924;11.600;2023-05-07T03:11:05;25.02;;;12.10;;
26953;SDS011;14508;50.924;11.600;2023-05-07T03:13:32;28.48;;;11.77;;
26953;SDS011;14508;50.924;11.600;2023-05-07T03:16:02;25.58;;;11.88;;
26953;SDS011;14508;50.924;11.600;2023-05-07T03:18:30;21.48;;;10.73;;
26953;SDS011;14508;50.924;11.600;2023-05-07T03:20:58;20.17;;;10.02;;
26953;SDS011;14508;50.924;11.600;2023-05-07T03:23:26;26.15;;;11.18;;
26953;SDS011;14508;50.924;11.600;2023-05-07T03:25:54;22.65;;;11.23;;
26953;SDS011;14508;50.924;11.600;2023-05-07T03:28:22;17.77;;;9.50;;
26953;SDS011;14508;50.924;11.600;2023-05-07T03:30:55;19.42;;;10.40;;
26953;SDS011;14508;50.924;11.600;2023-05-07T03:33:25;19.10;;;9.55;;
26953;SDS011;14508;50.924;11.600;2023-05-07T03:35:53;22.30;;;11.07;;
26953;SDS011;14508;50.924;11.600;2023-05-07T03:38:23;25.35;;;9.95;;
26953;SDS011;14508;50.924;11.600;2023-05-07T03:40:51;24.40;;;10.48;;
26953;SDS011;14508;50.924;11.600;2023-05-07T03:43:19;23.20;;;11.43;;
26953;SDS011;14508;50.924;11.600;2023-05-07T03:45:55;20.83;;;10.43;;
26953;SDS011;14508;50.924;11.600;2023-05-07T03:48:27;22.63;;;11.32;;
26953;SDS011;14508;50.924;11.600;2023-05-07T03:50:57;19.92;;;10.20;;
26953;SDS011;14508;50.924;11.600;2023-05-07T03:53:29;22.25;;;10.13;;
26953;SDS011;14508;50.924;11.600;2023-05-07T03:55:57;22.13;;;10.73;;
26953;SDS011;14508;50.924;11.600;2023-05-07T03:58:26;24.65;;;10.57;;
26953;SDS011;14508;50.924;11.600;2023-05-07T04:00:56;21.75;;;10.73;;
26953;SDS011;14508;50.924;11.600;2023-05-07T04:03:28;22.48;;;10.98;;
26953;SDS011;14508;50.924;11.600;2023-05-07T04:05:58;24.80;;;11.73;;
26953;SDS011;14508;50.924;11.600;2023-05-07T04:08:26;26.75;;;12.05;;
26953;SDS011;14508;50.924;11.600;2023-05-07T04:10:55;22.40;;;11.27;;
26953;SDS011;14508;50.924;11.600;2023-05-07T04:13:25;22.05;;;12.13;;
26953;SDS011;14508;50.924;11.600;2023-05-07T04:15:54;25.50;;;12.90;;
26953;SDS011;14508;50.924;11.600;2023-05-07T04:18:24;26.58;;;12.32;;
26953;SDS011;14508;50.924;11.600;2023-05-07T04:20:54;30.02;;;13.48;;
26953;SDS011;14508;50.924;11.600;2023-05-07T04:23:22;31.95;;;16.70;;
26953;SDS011;14508;50.924;11.600;2023-05-07T04:25:51;31.95;;;15.93;;
26953;SDS011;14508;50.924;11.600;2023-05-07T04:28:32;33.72;;;16.73;;
26953;SDS011;14508;50.924;11.600;2023-05-07T04:31:01;35.88;;;16.40;;
26953;SDS011;14508;50.924;11.600;2023-05-07T04:33:31;30.10;;;15.70;;
26953;SDS011;14508;50.924;11.600;2023-05-07T04:36:02;37.90;;;15.35;;
26953;SDS011;14508;50.924;11.600;2023-05-07T04:38:35;35.67;;;16.02;;
26953;SDS011;14508;50.924;11.600;2023-05-07T04:41:04;37.88;;;17.42;;
26953;SDS011;14508;50.924;11.600;2023-05-07T04:43:37;32.67;;;15.43;;
26953;SDS011;14508;50.924;11.600;2023-05-07T04:46:06;35.78;;;15.00;;
26953;SDS011;14508;50.924;11.600;2023-05-07T04:48:34;35.63;;;16.90;;
26953;SDS011;14508;50.924;11.600;2023-05-07T04:51:05;31.95;;;15.57;;
26953;SDS011;14508;50.924;11.600;2023-05-07T04:53:33;43.75;;;16.90;;
26953;SDS011;14508;50.924;11.600;2023-05-07T04:56:01;40.10;;;16.60;;
26953;SDS011;14508;50.924;11.600;2023-05-07T04:58:36;32.85;;;15.40;;
26953;SDS011;14508;50.924;11.600;2023-05-07T05:01:04;31.67;;;14.73;;
26953;SDS011;14508;50.924;11.600;2023-05-07T05:03:32;35.38;;;15.52;;
26953;SDS011;14508;50.924;11.600;2023-05-07T05:06:01;35.03;;;15.30;;
26953;SDS011;14508;50.924;11.600;2023-05-07T05:08:33;33.63;;;13.68;;
26953;SDS011;14508;50.924;11.600;2023-05-07T05:11:03;28.27;;;12.75;;
26953;SDS011;14508;50.924;11.600;2023-05-07T05:13:33;29.67;;;12.98;;
26953;SDS011;14508;50.924;11.600;2023-05-07T05:16:08;26.00;;;12.65;;
26953;SDS011;14508;50.924;11.600;2023-05-07T05:18:37;29.17;;;12.70;;
26953;SDS011;14508;50.924;11.600;2023-05-07T05:21:07;31.17;;;13.98;;
26953;SDS011;14508;50.924;11.600;2023-05-07T05:23:37;25.75;;;12.45;;
26953;SDS011;14508;50.924;11.600;2023-05-07T05:26:05;26.23;;;12.45;;
26953;SDS011;14508;50.924;11.600;2023-05-07T05:28:35;26.85;;;12.52;;
26953;SDS011;14508;50.924;11.600;2023-05-07T05:31:03;24.15;;;11.23;;
26953;SDS011;14508;50.924;11.600;2023-05-07T05:33:34;26.83;;;11.10;;
26953;SDS011;14508;50.924;11.600;2023-05-07T05:36:04;25.55;;;10.60;;
26953;SDS011;14508;50.924;11.600;2023-05-07T05:38:33;24.45;;;10.90;;
26953;SDS011;14508;50.924;11.600;2023-05-07T05:41:03;20.00;;;10.35;;
26953;SDS011;14508;50.924;11.600;2023-05-07T05:43:31;20.40;;;10.23;;
26953;SDS011;14508;50.924;11.600;2023-05-07T05:45:59;20.70;;;9.98;;
26953;SDS011;14508;50.924;11.600;2023-05-07T05:48:28;19.38;;;9.63;;
26953;SDS011;14508;50.924;11.600;2023-05-07T05:50:59;21.73;;;9.55;;
26953;SDS011;14508;50.924;11.600;2023-05-07T05:53:27;20.70;;;10.10;;
26953;SDS011;14508;50.924;11.600;2023-05-07T05:55:56;24.42;;;11.15;;
26953;SDS011;14508;50.924;11.600;2023-05-07T05:58:25;21.75;;;10.70;;
26953;SDS011;14508;50.924;11.600;2023-05-07T06:00:58;22.92;;;10.40;;
26953;SDS011;14508;50.924;11.600;2023-05-07T06:03:29;19.88;;;9.57;;
26953;SDS011;14508;50.924;11.600;2023-05-07T06:06:01;20.33;;;9.68;;
26953;SDS011;14508;50.924;11.600;2023-05-07T06:08:29;19.60;;;9.88;;
26953;SDS011;14508;50.924;11.600;2023-05-07T06:10:58;19.50;;;9.70;;
26953;SDS011;14508;50.924;11.600;2023-05-07T06:13:29;20.35;;;9.43;;
26953;SDS011;14508;50.924;11.600;2023-05-07T06:15:57;19.75;;;10.00;;
26953;SDS011;14508;50.924;11.600;2023-05-07T06:18:25;20.58;;;10.35;;
26953;SDS011;14508;50.924;11.600;2023-05-07T06:21:02;20.42;;;8.98;;
26953;SDS011;14508;50.924;11.600;2023-05-07T06:23:42;17.52;;;9.73;;
26953;SDS011;14508;50.924;11.600;2023-05-07T06:26:11;21.83;;;9.32;;
26953;SDS011;14508;50.924;11.600;2023-05-07T06:28:43;25.80;;;10.75;;
26953;SDS011;14508;50.924;11.600;2023-05-07T06:31:13;19.10;;;9.80;;
26953;SDS011;14508;50.924;11.600;2023-05-07T06:33:50;21.02;;;8.57;;
26953;SDS011;14508;50.924;11.600;2023-05-07T06:36:21;20.40;;;9.02;;
26953;SDS011;14508;50.924;11.600;2023-05-07T06:38:49;18.73;;;9.25;;
26953;SDS011;14508;50.924;11.600;2023-05-07T06:41:17;19.52;;;9.80;;
26953;SDS011;14508;50.924;11.600;2023-05-07T06:43:46;17.65;;;9.40;;
26953;SDS011;14508;50.924;11.600;2023-05-07T06:46:35;23.10;;;10.27;;
26953;SDS011;14508;50.924;11.600;2023-05-07T06:49:05;19.65;;;9.90;;
26953;SDS011;14508;50.924;11.600;2023-05-07T06:51:33;25.98;;;11.48;;
26953;SDS011;14508;50.924;11.600;2023-05-07T06:54:02;21.83;;;10.68;;
26953;SDS011;14508;50.924;11.600;2023-05-07T06:56:32;19.90;;;9.43;;
26953;SDS011;14508;50.924;11.600;2023-05-07T06:59:03;25.73;;;10.75;;
26953;SDS011;14508;50.924;11.600;2023-05-07T07:01:35;19.40;;;9.65;;
26953;SDS011;14508;50.924;11.600;2023-05-07T07:04:05;19.50;;;10.00;;
26953;SDS011;14508;50.924;11.600;2023-05-07T07:06:34;23.33;;;10.75;;
26953;SDS011;14508;50.924;11.600;2023-05-07T07:09:06;19.67;;;10.25;;
26953;SDS011;14508;50.924;11.600;2023-05-07T07:11:34;31.52;;;13.77;;
26953;SDS011;14508;50.924;11.600;2023-05-07T07:14:06;22.60;;;11.38;;
26953;SDS011;14508;50.924;11.600;2023-05-07T07:16:42;24.70;;;10.88;;
26953;SDS011;14508;50.924;11.600;2023-05-07T07:19:10;25.75;;;12.60;;
26953;SDS011;14508;50.924;11.600;2023-05-07T07:21:37;32.22;;;16.15;;
26953;SDS011;14508;50.924;11.600;2023-05-07T07:24:06;21.52;;;11.82;;
26953;SDS011;14508;50.924;11.600;2023-05-07T07:26:34;24.55;;;12.20;;
26953;SDS011;14508;50.924;11.600;2023-05-07T07:29:02;29.00;;;12.93;;
26953;SDS011;14508;50.924;11.600;2023-05-07T07:31:32;26.38;;;12.52;;
26953;SDS011;14508;50.924;11.600;2023-05-07T07:34:00;22.85;;;12.23;;
26953;SDS011;14508;50.924;11.600;2023-05-07T07:36:28;25.67;;;12.70;;
26953;SDS011;14508;50.924;11.600;2023-05-07T07:39:10;24.52;;;12.27;;
26953;SDS011;14508;50.924;11.600;2023-05-07T07:41:38;26.52;;;12.52;;
26953;SDS011;14508;50.924;11.600;2023-05-07T07:44:06;25.30;;;12.43;;
26953;SDS011;14508;50.924;11.600;2023-05-07T07:46:37;22.38;;;11.48;;
26953;SDS011;14508;50.924;11.600;2023-05-07T07:49:06;23.85;;;13.43;;
26953;SDS011;14508;50.924;11.600;2023-05-07T07:51:34;24.92;;;12.57;;
26953;SDS011;14508;50.924;11.600;2023-05-07T07:54:03;23.98;;;12.88;;
26953;SDS011;14508;50.924;11.600;2023-05-07T07:56:32;23.92;;;12.85;;
26953;SDS011;14508;50.924;11.600;2023-05-07T07:59:02;24.73;;;12.93;;
26953;SDS011;14508;50.924;11.600;2023-05-07T08:01:32;25.45;;;13.30;;
26953;SDS011;14508;50.924;11.600;2023-05-07T08:04:02;24.25;;;12.23;;
26953;SDS011;14508;50.924;11.600;2023-05-07T08:06:35;24.70;;;13.70;;
26953;SDS011;14508;50.924;11.600;2023-05-07T08:09:05;25.52;;;13.68;;
26953;SDS011;14508;50.924;11.600;2023-05-07T08:11:33;34.17;;;13.70;;
26953;SDS011;14508;50.924;11.600;2023-05-07T08:14:02;27.80;;;13.75;;
26953;SDS011;14508;50.924;11.600;2023-05-07T08:16:30;32.00;;;14.50;;
26953;SDS011;14508;50.924;11.600;2023-05-07T08:18:59;28.13;;;14.15;;
26953;SDS011;14508;50.924;11.600;2023-05-07T08:21:29;25.52;;;12.60;;
26953;SDS011;14508;50.924;11.600;2023-05-07T08:24:00;28.90;;;13.52;;
26953;SDS011;14508;50.924;11.600;2023-05-07T08:26:28;28.77;;;14.93;;
26953;SDS011;14508;50.924;11.600;2023-05-07T08:28:56;28.20;;;14.55;;
26953;SDS011;14508;50.924;11.600;2023-05-07T08:31:24;27.23;;;13.73;;
26953;SDS011;14508;50.924;11.600;2023-05-07T08:33:52;26.50;;;13.73;;
26953;SDS011;14508;50.924;11.600;2023-05-07T08:36:21;25.42;;;12.02;;
26953;SDS011;14508;50.924;11.600;2023-05-07T08:38:49;23.35;;;12.65;;
26953;SDS011;14508;50.924;11.600;2023-05-07T08:41:17;29.55;;;12.88;;
26953;SDS011;14508;50.924;11.600;2023-05-07T08:43:49;23.65;;;12.15;;
26953;SDS011;14508;50.924;11.600;2023-05-07T08:46:19;23.02;;;11.85;;
26953;SDS011;14508;50.924;11.600;2023-05-07T08:48:51;24.15;;;12.18;;
26953;SDS011;14508;50.924;11.600;2023-05-07T08:51:20;23.10;;;11.95;;
26953;SDS011;14508;50.924;11.600;2023-05-07T08:53:50;28.42;;;14.13;;
26953;SDS011;14508;50.924;11.600;2023-05-07T08:56:25;26.63;;;12.45;;
26953;SDS011;14508;50.924;11.600;2023-05-07T08:58:54;27.33;;;12.35;;
26953;SDS011;14508;50.924;11.600;2023-05-07T09:01:23;26.40;;;13.55;;
26953;SDS011;14508;50.924;11.600;2023-05-07T09:03:53;21.52;;;12.68;;
26953;SDS011;14508;50.924;11.600;2023-05-07T09:06:24;24.63;;;12.55;;
26953;SDS011;14508;50.924;11.600;2023-05-07T09:08:53;22.17;;;12.07;;
26953;SDS011;14508;50.924;11.600;2023-05-07T09:11:25;23.80;;;11.52;;
26953;SDS011;14508;50.924;11.600;2023-05-07T09:13:56;17.67;;;10.23;;
26953;SDS011;14508;50.924;11.600;2023-05-07T09:16:30;25.92;;;11.07;;
26953;SDS011;14508;50.924;11.600;2023-05-07T09:18:59;21.35;;;10.60;;
26953;SDS011;14508;50.924;11.600;2023-05-07T09:21:28;17.27;;;10.13;;
26953;SDS011;14508;50.924;11.600;2023-05-07T09:24:01;20.17;;;11.95;;
26953;SDS011;14508;50.924;11.600;2023-05-07T09:26:35;24.05;;;11.05;;
26953;SDS011;14508;50.924;11.600;2023-05-07T09:29:04;21.02;;;11.10;;
26953;SDS011;14508;50.924;11.600;2023-05-07T09:31:36;18.77;;;10.50;;
26953;SDS011;14508;50.924;11.600;2023-05-07T09:34:06;20.15;;;10.63;;
26953;SDS011;14508;50.924;11.600;2023-05-07T09:36:38;48.78;;;21.05;;
26953;SDS011;14508;50.924;11.600;2023-05-07T09:39:07;24.20;;;13.23;;
26953;SDS011;14508;50.924;11.600;2023-05-07T09:41:42;19.50;;;11.65;;
26953;SDS011;14508;50.924;11.600;2023-05-07T09:44:28;19.85;;;11.30;;
26953;SDS011;14508;50.924;11.600;2023-05-07T09:46:55;18.40;;;10.20;;
26953;SDS011;14508;50.924;11.600;2023-05-07T09:49:34;18.30;;;10.07;;
26953;SDS011;14508;50.924;11.600;2023-05-07T09:52:08;22.50;;;10.90;;
26953;SDS011;14508;50.924;11.600;2023-05-07T09:54:44;20.58;;;10.88;;
26953;SDS011;14508;50.924;11.600;2023-05-07T09:57:16;17.95;;;9.88;;
26953;SDS011;14508;50.924;11.600;2023-05-07T09:59:50;19.07;;;10.40;;
26953;SDS011;14508;50.924;11.600;2023-05-07T10:02:19;19.38;;;9.93;;
26953;SDS011;14508;50.924;11.600;2023-05-07T10:04:51;20.70;;;11.18;;
26953;SDS011;14508;50.924;11.600;2023-05-07T10:07:27;20.05;;;11.00;;
26953;SDS011;14508;50.924;11.600;2023-05-07T10:10:03;15.40;;;9.25;;
26953;SDS011;14508;50.924;11.600;2023-05-07T10:12:37;29.67;;;15.07;;
26953;SDS011;14508;50.924;11.600;2023-05-07T10:15:13;19.80;;;10.35;;
26953;SDS011;14508;50.924;11.600;2023-05-07T10:17:46;18.90;;;10.88;;
26953;SDS011;14508;50.924;11.600;2023-05-07T10:20:16;20.08;;;9.98;;
26953;SDS011;14508;50.924;11.600;2023-05-07T10:22:47;19.30;;;10.23;;
26953;SDS011;14508;50.924;11.600;2023-05-07T10:25:23;17.15;;;9.70;;
26953;SDS011;14508;50.924;11.600;2023-05-07T10:27:59;21.98;;;9.75;;
26953;SDS011;14508;50.924;11.600;2023-05-07T10:30:32;19.92;;;10.52;;
26953;SDS011;14508;50.924;11.600;2023-05-07T10:33:08;17.73;;;9.60;;
26953;SDS011;14508;50.924;11.600;2023-05-07T10:35:41;23.08;;;12.25;;
26953;SDS011;14508;50.924;11.600;2023-05-07T10:38:14;21.30;;;11.30;;
26953;SDS011;14508;50.924;11.600;2023-05-07T10:40:44;22.23;;;11.30;;
26953;SDS011;14508;50.924;11.600;2023-05-07T10:43:14;19.27;;;10.73;;
26953;SDS011;14508;50.924;11.600;2023-05-07T10:52:13;20.55;;;10.43;;
26953;SDS011;14508;50.924;11.600;2023-05-07T10:58:10;18.05;;;10.23;;
26953;SDS011;14508;50.924;11.600;2023-05-07T11:01:04;19.05;;;9.90;;
26953;SDS011;14508;50.924;11.600;2023-05-07T11:03:37;17.83;;;10.35;;
26953;SDS011;14508;50.924;11.600;2023-05-07T11:09:59;16.10;;;9.00;;
26953;SDS011;14508;50.924;11.600;2023-05-07T11:12:53;17.50;;;9.13;;
26953;SDS011;14508;50.924;11.600;2023-05-07T11:15:42;14.68;;;8.77;;
26953;SDS011;14508;50.924;11.600;2023-05-07T11:18:19;14.68;;;9.20;;
26953;SDS011;14508;50.924;11.600;2023-05-07T11:20:53;14.55;;;8.95;;
26953;SDS011;14508;50.924;11.600;2023-05-07T11:23:55;17.75;;;9.55;;
26953;SDS011;14508;50.924;11.600;2023-05-07T11:26:44;18.65;;;8.82;;
26953;SDS011;14508;50.924;11.600;2023-05-07T11:29:16;16.88;;;9.10;;
26953;SDS011;14508;50.924;11.600;2023-05-07T11:31:51;14.75;;;8.98;;
26953;SDS011;14508;50.924;11.600;2023-05-07T11:34:23;17.80;;;8.82;;
26953;SDS011;14508;50.924;11.600;2023-05-07T11:36:55;15.32;;;8.73;;
26953;SDS011;14508;50.924;11.600;2023-05-07T11:39:40;16.23;;;9.48;;
26953;SDS011;14508;50.924;11.600;2023-05-07T11:42:14;16.27;;;9.00;;
26953;SDS011;14508;50.924;11.600;2023-05-07T11:44:53;14.73;;;9.05;;
26953;SDS011;14508;50.924;11.600;2023-05-07T11:47:22;16.50;;;9.68;;
26953;SDS011;14508;50.924;11.600;2023-05-07T11:49:50;19.10;;;9.88;;
26953;SDS011;14508;50.924;11.600;2023-05-07T11:52:20;15.82;;;8.77;;
26953;SDS011;14508;50.924;11.600;2023-05-07T11:54:49;14.77;;;8.95;;
26953;SDS011;14508;50.924;11.600;2023-05-07T11:57:17;13.05;;;8.13;;
26953;SDS011;14508;50.924;11.600;2023-05-07T11:59:46;13.63;;;8.15;;
26953;SDS011;14508;50.924;11.600;2023-05-07T12:02:15;15.88;;;8.85;;
26953;SDS011;14508;50.924;11.600;2023-05-07T12:04:45;13.48;;;8.30;;
26953;SDS011;14508;50.924;11.600;2023-05-07T12:07:13;11.70;;;7.72;;
26953;SDS011;14508;50.924;11.600;2023-05-07T12:09:42;11.93;;;7.20;;
26953;SDS011;14508;50.924;11.600;2023-05-07T12:12:11;12.93;;;7.88;;
26953;SDS011;14508;50.924;11.600;2023-05-07T12:14:42;11.18;;;7.00;;
26953;SDS011;14508;50.924;11.600;2023-05-07T12:17:11;11.90;;;7.05;;
26953;SDS011;14508;50.924;11.600;2023-05-07T12:19:43;13.38;;;8.13;;
26953;SDS011;14508;50.924;11.600;2023-05-07T12:22:12;12.45;;;7.00;;
26953;SDS011;14508;50.924;11.600;2023-05-07T12:24:44;12.20;;;7.38;;
26953;SDS011;14508;50.924;11.600;2023-05-07T12:27:12;10.45;;;6.88;;
26953;SDS011;14508;50.924;11.600;2023-05-07T12:29:43;12.95;;;7.18;;
26953;SDS011;14508;50.924;11.600;2023-05-07T12:32:13;13.70;;;7.88;;
26953;SDS011;14508;50.924;11.600;2023-05-07T12:34:43;12.57;;;7.85;;
26953;SDS011;14508;50.924;11.600;2023-05-07T12:37:12;12.60;;;7.30;;
26953;SDS011;14508;50.924;11.600;2023-05-07T12:39:44;12.27;;;7.05;;
26953;SDS011;14508;50.924;11.600;2023-05-07T12:42:14;12.02;;;7.45;;
26953;SDS011;14508;50.924;11.600;2023-05-07T12:44:45;11.45;;;6.85;;
26953;SDS011;14508;50.924;11.600;2023-05-07T12:47:14;10.07;;;6.60;;
26953;SDS011;14508;50.924;11.600;2023-05-07T12:49:44;10.57;;;7.07;;
26953;SDS011;14508;50.924;11.600;2023-05-07T12:52:12;14.65;;;7.65;;
26953;SDS011;14508;50.924;11.600;2023-05-07T12:54:41;11.80;;;7.40;;
26953;SDS011;14508;50.924;11.600;2023-05-07T12:57:09;12.35;;;7.15;;
26953;SDS011;14508;50.924;11.600;2023-05-07T12:59:37;10.20;;;7.18;;
26953;SDS011;14508;50.924;11.600;2023-05-07T13:02:07;14.57;;;6.68;;
26953;SDS011;14508;50.924;11.600;2023-05-07T13:04:37;9.23;;;6.22;;
26953;SDS011;14508;50.924;11.600;2023-05-07T13:07:06;11.50;;;6.70;;
26953;SDS011;14508;50.924;11.600;2023-05-07T13:09:34;9.35;;;6.35;;
26953;SDS011;14508;50.924;11.600;2023-05-07T13:12:03;11.23;;;6.13;;
26953;SDS011;14508;50.924;11.600;2023-05-07T13:14:32;11.30;;;6.15;;
26953;SDS011;14508;50.924;11.600;2023-05-07T13:17:00;9.10;;;6.20;;
26953;SDS011;14508;50.924;11.600;2023-05-07T13:19:28;9.98;;;6.60;;
26953;SDS011;14508;50.924;11.600;2023-05-07T13:21:56;10.05;;;5.95;;
26953;SDS011;14508;50.924;11.600;2023-05-07T13:24:26;8.82;;;6.05;;
26953;SDS011;14508;50.924;11.600;2023-05-07T13:26:54;9.55;;;5.72;;
26953;SDS011;14508;50.924;11.600;2023-05-07T13:29:22;8.45;;;5.70;;
26953;SDS011;14508;50.924;11.600;2023-05-07T13:31:54;9.52;;;6.53;;
26953;SDS011;14508;50.924;11.600;2023-05-07T13:34:23;9.38;;;6.05;;
26953;SDS011;14508;50.924;11.600;2023-05-07T13:36:51;11.57;;;6.35;;
26953;SDS011;14508;50.924;11.600;2023-05-07T13:39:19;8.50;;;5.93;;
26953;SDS011;14508;50.924;11.600;2023-05-07T13:41:48;8.82;;;5.40;;
26953;SDS011;14508;50.924;11.600;2023-05-07T13:44:16;7.43;;;5.00;;
26953;SDS011;14508;50.924;11.600;2023-05-07T13:46:44;11.80;;;4.80;;
26953;SDS011;14508;50.924;11.600;2023-05-07T13:49:11;10.23;;;5.43;;
26953;SDS011;14508;50.924;11.600;2023-05-07T13:51:39;9.70;;;5.68;;
26953;SDS011;14508;50.924;11.600;2023-05-07T13:54:07;9.65;;;5.93;;
26953;SDS011;14508;50.924;11.600;2023-05-07T13:56:35;10.60;;;5.60;;
26953;SDS011;14508;50.924;11.600;2023-05-07T13:59:04;13.73;;;5.72;;
26953;SDS011;14508;50.924;11.600;2023-05-07T14:01:32;8.30;;;5.53;;
26953;SDS011;14508;50.924;11.600;2023-05-07T14:04:00;9.10;;;5.28;;
26953;SDS011;14508;50.924;11.600;2023-05-07T14:06:28;7.15;;;4.88;;
26953;SDS011;14508;50.924;11.600;2023-05-07T14:08:57;6.45;;;4.78;;
26953;SDS011;14508;50.924;11.600;2023-05-07T14:11:26;9.57;;;6.00;;
26953;SDS011;14508;50.924;11.600;2023-05-07T14:13:54;5.80;;;4.20;;
26953;SDS011;14508;50.924;11.600;2023-05-07T14:16:24;7.53;;;5.05;;
26953;SDS011;14508;50.924;11.600;2023-05-07T14:18:52;6.47;;;4.20;;
26953;SDS011;14508;50.924;11.600;2023-05-07T14:21:23;7.82;;;4.75;;
26953;SDS011;14508;50.924;11.600;2023-05-07T14:23:51;5.30;;;4.35;;
26953;SDS011;14508;50.924;11.600;2023-05-07T14:26:19;5.32;;;4.38;;
26953;SDS011;14508;50.924;11.600;2023-05-07T14:28:49;4.82;;;4.22;;
26953;SDS011;14508;50.924;11.600;2023-05-07T14:31:17;6.00;;;3.78;;
26953;SDS011;14508;50.924;11.600;2023-05-07T14:33:46;5.50;;;3.75;;
26953;SDS011;14508;50.924;11.600;2023-05-07T14:36:16;8.02;;;3.55;;
26953;SDS011;14508;50.924;11.600;2023-05-07T14:38:46;4.28;;;3.55;;
26953;SDS011;14508;50.924;11.600;2023-05-07T14:41:14;7.65;;;3.22;;
26953;SDS011;14508;50.924;11.600;2023-05-07T14:43:42;7.28;;;4.68;;
26953;SDS011;14508;50.924;11.600;2023-05-07T14:46:16;4.80;;;3.72;;
26953;SDS011;14508;50.924;11.600;2023-05-07T14:48:46;4.53;;;3.70;;